createdAt,value
2019-05-11T00:02:42.972Z,8.08
2019-05-11T00:05:49.505Z,7.80
2019-05-11T00:08:56.392Z,7.86
2019-05-11T00:12:03.005Z,7.69
2019-05-11T00:15:10.231Z,7.75
2019-05-11T00:18:17.070Z,7.85
2019-05-11T00:21:23.674Z,7.68
2019-05-11T00:24:30.192Z,7.74
2019-05-11T00:27:37.048Z,7.76
2019-05-11T00:30:43.662Z,7.53
2019-05-11T00:33:50.195Z,7.43
2019-05-11T00:36:56.965Z,7.67
2019-05-11T00:40:13.950Z,7.62
2019-05-11T00:43:12.247Z,7.45
2019-05-11T00:46:18.822Z,7.20
2019-05-11T00:49:25.395Z,7.28
2019-05-11T00:52:34.667Z,7.14
2019-05-11T00:55:41.283Z,7.14
2019-05-11T00:58:50.807Z,7.47
2019-05-11T01:01:57.148Z,7.41
2019-05-11T01:05:03.716Z,6.94
2019-05-11T01:08:10.288Z,6.93
2019-05-11T01:11:16.932Z,7.17
2019-05-11T01:14:23.425Z,7.28
2019-05-11T01:17:29.957Z,7.39
2019-05-11T01:20:36.466Z,7.41
2019-05-11T01:23:43.327Z,7.40
2019-05-11T01:26:49.819Z,7.31
2019-05-11T01:29:56.379Z,7.46
2019-05-11T01:33:02.993Z,7.36
2019-05-11T01:36:09.470Z,7.33
2019-05-11T01:39:15.949Z,7.34
2019-05-11T01:42:22.703Z,7.49
2019-05-11T01:45:29.214Z,7.48
2019-05-11T01:48:35.634Z,7.45
2019-05-11T01:51:42.239Z,7.29
2019-05-11T01:54:48.739Z,7.12
2019-05-11T01:57:55.341Z,7.14
2019-05-11T02:01:02.003Z,7.04
2019-05-11T02:04:10.087Z,7.33
2019-05-11T02:07:16.723Z,7.31
2019-05-11T02:10:23.159Z,7.75
2019-05-11T02:13:29.598Z,7.71
2019-05-11T02:16:36.194Z,7.82
2019-05-11T02:19:42.698Z,7.36
2019-05-11T02:22:49.351Z,6.69
2019-05-11T02:25:56.089Z,6.74
2019-05-11T02:29:02.640Z,6.94
2019-05-11T02:32:09.080Z,7.17
2019-05-11T02:35:16.042Z,7.09
2019-05-11T02:38:22.490Z,6.99
2019-05-11T02:41:36.423Z,7.29
2019-05-11T02:44:37.196Z,7.33
2019-05-11T02:47:43.818Z,7.41
2019-05-11T02:50:53.248Z,7.31
2019-05-11T02:54:02.286Z,7.40
2019-05-11T02:57:09.050Z,7.71
2019-05-11T03:00:18.684Z,7.61
2019-05-11T03:03:25.294Z,7.49
2019-05-11T03:06:32.220Z,7.53
2019-05-11T03:09:38.851Z,7.46
2019-05-11T03:12:45.778Z,7.38
2019-05-11T03:15:52.433Z,7.35
2019-05-11T03:18:59.436Z,7.15
2019-05-11T03:22:06.128Z,7.41
2019-05-11T03:25:13.183Z,7.18
2019-05-11T03:28:19.863Z,7.52
2019-05-11T03:31:26.381Z,7.47
2019-05-11T03:34:32.874Z,7.62
2019-05-11T03:37:39.398Z,7.47
2019-05-11T03:40:46.023Z,7.46
2019-05-11T03:43:52.394Z,7.38
2019-05-11T03:46:59.041Z,7.44
2019-05-11T03:50:05.604Z,7.47
2019-05-11T03:53:12.389Z,7.47
2019-05-11T03:56:18.884Z,7.35
2019-05-11T03:59:25.414Z,7.43
2019-05-11T04:02:32.048Z,7.37
2019-05-11T04:05:38.628Z,7.63
2019-05-11T04:08:46.306Z,7.61
2019-05-11T04:11:53.113Z,7.42
2019-05-11T04:14:59.658Z,7.70
2019-05-11T04:18:06.346Z,7.51
2019-05-11T04:21:13.258Z,7.27
2019-05-11T04:24:19.901Z,7.32
2019-05-11T04:27:26.419Z,7.50
2019-05-11T04:30:33.057Z,7.73
2019-05-11T04:33:39.632Z,7.77
2019-05-11T04:36:46.236Z,7.87
2019-05-11T04:39:54.434Z,8.02
2019-05-11T04:43:01.009Z,7.74
2019-05-11T04:46:07.587Z,7.87
2019-05-11T04:49:15.080Z,7.99
2019-05-11T04:52:21.646Z,7.96
2019-05-11T04:55:28.318Z,8.05
2019-05-11T04:58:35.373Z,7.97
2019-05-11T05:01:42.217Z,7.94
2019-05-11T05:04:48.931Z,8.01
2019-05-11T05:08:08.585Z,7.97
2019-05-11T05:11:04.231Z,7.99
2019-05-11T05:14:10.870Z,7.92
2019-05-11T05:17:17.309Z,7.93
2019-05-11T05:20:23.905Z,7.91
2019-05-11T05:23:30.387Z,8.01
2019-05-11T05:26:36.873Z,8.09
2019-05-11T05:29:43.479Z,8.15
2019-05-11T05:32:50.179Z,8.30
2019-05-11T05:35:56.581Z,8.35
2019-05-11T05:39:04.001Z,8.43
2019-05-11T05:42:10.621Z,8.43
2019-05-11T05:45:17.369Z,8.35
2019-05-11T05:48:23.908Z,8.36
2019-05-11T05:51:30.681Z,8.37
2019-05-11T05:54:37.227Z,8.34
2019-05-11T05:57:43.628Z,8.41
2019-05-11T06:00:50.275Z,8.34
2019-05-11T06:03:56.894Z,8.50
2019-05-11T06:07:03.438Z,8.54
2019-05-11T06:10:10.311Z,8.55
2019-05-11T06:13:17.185Z,8.56
2019-05-11T06:16:23.786Z,8.52
2019-05-11T06:19:30.509Z,8.54
2019-05-11T06:22:37.059Z,8.63
2019-05-11T06:25:43.599Z,8.44
2019-05-11T06:28:50.717Z,8.53
2019-05-11T06:31:57.268Z,8.50
2019-05-11T06:35:04.150Z,8.48
2019-05-11T06:38:10.933Z,8.37
2019-05-11T06:41:18.583Z,8.43
2019-05-11T06:44:26.221Z,8.49
2019-05-11T06:47:32.893Z,8.44
2019-05-11T06:50:39.525Z,8.39
2019-05-11T06:53:46.125Z,8.53
2019-05-11T06:56:52.513Z,8.52
2019-05-11T06:59:59.005Z,8.61
2019-05-11T07:03:05.529Z,8.67
2019-05-11T07:06:11.956Z,8.68
2019-05-11T07:09:18.397Z,8.65
2019-05-11T07:12:27.652Z,8.60
2019-05-11T07:15:34.148Z,8.56
2019-05-11T07:18:40.634Z,8.54
2019-05-11T07:21:47.131Z,8.57
2019-05-11T07:24:53.583Z,8.65
2019-05-11T07:28:00.098Z,8.68
2019-05-11T07:31:06.857Z,8.79
2019-05-11T07:34:13.326Z,8.81
2019-05-11T07:37:19.843Z,8.67
2019-05-11T07:40:27.936Z,8.74
2019-05-11T07:43:51.669Z,8.75
2019-05-11T07:46:58.804Z,8.79
2019-05-11T07:50:08.243Z,8.98
2019-05-11T07:53:14.930Z,9.13
2019-05-11T07:56:21.423Z,9.07
2019-05-11T07:59:28.965Z,9.11
2019-05-11T08:02:35.598Z,9.14
2019-05-11T08:05:42.089Z,9.22
2019-05-11T08:08:49.167Z,9.26
2019-05-11T08:11:58.217Z,9.26
2019-05-11T08:15:12.441Z,9.40
2019-05-11T08:18:18.909Z,9.39
2019-05-11T08:21:25.641Z,9.44
2019-05-11T08:24:32.275Z,9.51
2019-05-11T08:27:38.852Z,9.58
2019-05-11T08:30:45.674Z,9.50
2019-05-11T08:33:52.270Z,9.49
2019-05-11T08:37:01.613Z,9.56
2019-05-11T08:40:08.235Z,9.61
2019-05-11T08:43:17.817Z,9.62
2019-05-11T08:46:23.825Z,9.57
2019-05-11T08:49:30.484Z,9.59
2019-05-11T08:52:38.612Z,9.51
2019-05-11T08:55:44.983Z,9.54
2019-05-11T08:58:54.961Z,9.40
2019-05-11T09:01:59.663Z,9.31
2019-05-11T09:05:08.190Z,9.32
2019-05-11T09:08:15.773Z,9.40
2019-05-11T09:11:22.210Z,9.39
2019-05-11T09:14:28.681Z,9.39
2019-05-11T09:17:35.095Z,9.48
2019-05-11T09:20:42.649Z,9.47
2019-05-11T09:23:49.079Z,9.58
2019-05-11T09:26:55.561Z,9.70
2019-05-11T09:30:02.338Z,9.60
2019-05-11T09:33:08.960Z,9.77
2019-05-11T09:36:17.803Z,9.71
2019-05-11T09:39:23.821Z,9.78
2019-05-11T09:42:30.403Z,9.84
2019-05-11T09:45:45.829Z,9.84
2019-05-11T09:48:45.056Z,9.96
2019-05-11T09:51:52.796Z,9.87
2019-05-11T09:54:59.534Z,10.00
2019-05-11T09:58:48.274Z,9.91
2019-05-11T10:01:54.670Z,9.91
2019-05-11T10:05:01.125Z,9.84
2019-05-11T10:08:07.983Z,9.88
2019-05-11T10:11:14.661Z,9.91
2019-05-11T10:14:21.323Z,9.94
2019-05-11T10:17:28.798Z,10.01
2019-05-11T10:20:38.912Z,10.05
2019-05-11T10:23:45.614Z,10.12
2019-05-11T10:26:52.151Z,10.17
2019-05-11T10:29:59.038Z,10.22
2019-05-11T10:33:05.559Z,10.21
2019-05-11T10:36:12.244Z,10.27
2019-05-11T10:39:18.905Z,10.37
2019-05-11T10:42:25.360Z,10.53
2019-05-11T10:45:31.919Z,10.59
2019-05-11T10:48:39.011Z,10.62
2019-05-11T10:51:45.605Z,10.80
2019-05-11T10:54:52.055Z,10.80
2019-05-11T10:57:58.577Z,10.89
2019-05-11T11:01:05.039Z,11.05
2019-05-11T11:04:11.637Z,11.02
2019-05-11T11:07:19.502Z,10.91
2019-05-11T11:10:28.436Z,11.04
2019-05-11T11:13:34.367Z,11.11
2019-05-11T11:16:42.979Z,11.14
2019-05-11T11:19:49.081Z,11.23
2019-05-11T11:22:55.540Z,11.35
2019-05-11T11:26:02.471Z,11.43
2019-05-11T11:29:09.003Z,11.48
2019-05-11T11:32:15.480Z,11.58
2019-05-11T11:35:21.982Z,11.76
2019-05-11T11:38:28.760Z,11.92
2019-05-11T11:41:35.313Z,12.39
2019-05-11T11:44:41.875Z,12.34
2019-05-11T11:47:49.409Z,12.58
2019-05-11T11:50:58.353Z,12.81
2019-05-11T11:54:04.733Z,12.90
2019-05-11T11:57:11.278Z,12.74
2019-05-11T12:00:18.545Z,12.91
2019-05-11T12:03:24.986Z,12.84
2019-05-11T12:06:38.376Z,12.92
2019-05-11T12:09:44.746Z,12.94
2019-05-11T12:12:51.283Z,13.48
2019-05-11T12:15:58.468Z,13.12
2019-05-11T12:19:05.443Z,13.01
2019-05-11T12:22:11.882Z,13.19
2019-05-11T12:25:18.856Z,13.34
2019-05-11T12:28:27.640Z,13.66
2019-05-11T12:31:34.364Z,13.59
2019-05-11T12:34:40.804Z,13.51
2019-05-11T12:37:48.451Z,12.98
2019-05-11T12:40:55.235Z,13.23
2019-05-11T12:44:01.753Z,13.20
2019-05-11T12:47:21.056Z,13.23
2019-05-11T12:50:18.628Z,13.25
2019-05-11T12:53:25.307Z,12.99
2019-05-11T12:56:31.858Z,12.98
2019-05-11T12:59:38.337Z,12.89
2019-05-11T13:02:44.951Z,12.89
2019-05-11T13:05:51.309Z,12.57
2019-05-11T13:08:58.750Z,12.56
2019-05-11T13:12:05.549Z,12.49
2019-05-11T13:15:14.091Z,12.59
2019-05-11T13:18:22.917Z,12.64
2019-05-11T13:21:29.383Z,12.73
2019-05-11T13:24:35.877Z,12.65
2019-05-11T13:27:42.318Z,12.78
2019-05-11T13:30:49.608Z,13.00
2019-05-11T13:33:58.343Z,12.87
2019-05-11T13:37:04.233Z,13.09
2019-05-11T13:40:11.069Z,13.25
2019-05-11T13:43:18.881Z,12.96
2019-05-11T13:46:28.291Z,13.19
2019-05-11T13:49:37.855Z,12.98
2019-05-11T13:52:44.443Z,12.45
2019-05-11T13:55:50.999Z,12.83
2019-05-11T13:59:07.447Z,12.74
2019-05-11T14:02:13.948Z,13.03
2019-05-11T14:05:20.344Z,13.17
2019-05-11T14:08:27.785Z,13.02
2019-05-11T14:11:34.380Z,12.75
2019-05-11T14:14:40.975Z,12.83
2019-05-11T14:17:48.557Z,12.66
2019-05-11T14:20:55.367Z,12.82
2019-05-11T14:24:01.969Z,12.96
2019-05-11T14:27:08.676Z,13.15
2019-05-11T14:30:15.941Z,13.69
2019-05-11T14:33:23.643Z,13.84
2019-05-11T14:36:30.224Z,13.96
2019-05-11T14:39:38.354Z,13.26
2019-05-11T14:42:45.050Z,13.06
2019-05-11T14:45:51.600Z,13.12
2019-05-11T14:48:59.532Z,13.08
2019-05-11T14:52:08.078Z,12.67
2019-05-11T14:55:14.481Z,12.69
2019-05-11T14:58:20.931Z,12.50
2019-05-11T15:01:28.707Z,12.68
2019-05-11T15:04:37.792Z,12.56
2019-05-11T15:07:43.627Z,12.45
2019-05-11T15:10:50.107Z,12.64
2019-05-11T15:13:57.547Z,12.60
2019-05-11T15:17:04.358Z,12.51
2019-05-11T15:20:12.757Z,12.53
2019-05-11T15:23:19.272Z,12.64
2019-05-11T15:26:27.766Z,12.54
2019-05-11T15:29:34.171Z,12.62
2019-05-11T15:32:40.911Z,12.53
2019-05-11T15:35:48.435Z,12.54
2019-05-11T15:38:55.066Z,12.50
2019-05-11T15:42:10.345Z,12.62
2019-05-11T15:45:10.663Z,12.33
2019-05-11T15:48:18.671Z,12.59
2019-05-11T15:51:25.404Z,12.80
2019-05-11T15:54:31.778Z,12.68
2019-05-11T15:57:38.732Z,12.41
2019-05-11T16:00:45.149Z,12.42
2019-05-11T16:03:51.735Z,12.70
2019-05-11T16:07:01.004Z,12.61
2019-05-11T16:10:08.969Z,12.60
2019-05-11T16:13:17.898Z,12.49
2019-05-11T16:16:23.524Z,12.38
2019-05-11T16:19:30.059Z,12.30
2019-05-11T16:22:38.460Z,12.44
2019-05-11T16:25:44.579Z,12.53
2019-05-11T16:28:51.215Z,12.43
2019-05-11T16:31:58.076Z,12.25
2019-05-11T16:35:05.467Z,12.22
2019-05-11T16:38:13.748Z,12.13
2019-05-11T16:41:21.151Z,11.99
2019-05-11T16:44:27.718Z,12.02
2019-05-11T16:47:34.167Z,12.20
2019-05-11T16:50:40.605Z,11.94
2019-05-11T16:53:48.057Z,11.97
2019-05-11T16:56:54.674Z,12.10
2019-05-11T17:00:01.184Z,11.88
2019-05-11T17:03:07.723Z,11.64
2019-05-11T17:06:14.216Z,11.70
2019-05-11T17:09:20.670Z,11.64
2019-05-11T17:12:28.647Z,11.67
2019-05-11T17:15:35.159Z,11.65
2019-05-11T17:18:41.694Z,11.47
2019-05-11T17:21:48.293Z,11.47
2019-05-11T17:24:54.885Z,11.58
2019-05-11T17:28:02.246Z,11.48
2019-05-11T17:31:08.770Z,11.50
2019-05-11T17:34:20.030Z,11.46
2019-05-11T17:37:23.460Z,11.34
2019-05-11T17:40:30.238Z,11.23
2019-05-11T17:43:38.612Z,11.24
2019-05-11T17:46:44.904Z,11.27
2019-05-11T17:49:59.587Z,11.20
2019-05-11T17:52:59.704Z,10.96
2019-05-11T17:56:06.268Z,10.98
2019-05-11T17:59:12.774Z,11.03
2019-05-11T18:02:19.428Z,10.94
2019-05-11T18:05:25.869Z,10.84
2019-05-11T18:08:32.424Z,10.76
2019-05-11T18:11:40.410Z,10.63
2019-05-11T18:14:48.217Z,10.52
2019-05-11T18:17:55.083Z,10.50
2019-05-11T18:21:01.537Z,10.43
2019-05-11T18:24:09.174Z,10.40
2019-05-11T18:27:15.836Z,10.22
2019-05-11T18:30:22.454Z,10.12
2019-05-11T18:33:30.073Z,9.98
2019-05-11T18:36:38.269Z,9.99
2019-05-11T18:39:52.778Z,9.84
2019-05-11T18:43:00.419Z,9.80
2019-05-11T18:46:08.608Z,9.81
2019-05-11T18:49:15.060Z,9.84
2019-05-11T18:52:21.515Z,9.83
2019-05-11T18:55:28.251Z,9.73
2019-05-11T18:58:34.694Z,9.41
2019-05-11T19:01:41.121Z,9.41
2019-05-11T19:04:48.806Z,9.26
2019-05-11T19:07:55.400Z,9.14
2019-05-11T19:11:01.824Z,9.08
2019-05-11T19:14:09.513Z,8.85
2019-05-11T19:17:18.004Z,8.81
2019-05-11T19:20:24.367Z,8.84
2019-05-11T19:23:30.923Z,8.85
2019-05-11T19:26:37.556Z,8.77
2019-05-11T19:29:44.317Z,8.76
2019-05-11T19:32:50.907Z,8.67
2019-05-11T19:35:58.667Z,8.67
2019-05-11T19:39:08.881Z,8.68
2019-05-11T19:42:17.877Z,8.73
2019-05-11T19:45:25.120Z,8.68
2019-05-11T19:48:31.883Z,8.76
2019-05-11T19:51:42.310Z,8.62
2019-05-11T19:54:48.626Z,8.69
2019-05-11T19:57:54.754Z,8.72
2019-05-11T20:01:01.256Z,8.73
2019-05-11T20:04:38.772Z,8.80
2019-05-11T20:07:45.334Z,8.76
2019-05-11T20:10:53.648Z,8.78
2019-05-11T20:14:01.250Z,8.78
2019-05-11T20:17:08.909Z,8.67
2019-05-11T20:20:18.086Z,8.57
2019-05-11T20:23:24.073Z,8.53
2019-05-11T20:26:30.639Z,8.59
2019-05-11T20:29:38.432Z,8.71
2019-05-11T20:32:45.122Z,8.56
2019-05-11T20:35:51.651Z,8.55
2019-05-11T20:38:58.066Z,8.62
2019-05-11T20:42:04.759Z,8.47
2019-05-11T20:45:11.561Z,8.40
2019-05-11T20:48:18.597Z,8.53
2019-05-11T20:51:36.245Z,8.41
2019-05-11T20:54:33.444Z,8.33
2019-05-11T20:57:39.937Z,8.43
2019-05-11T21:00:48.456Z,8.35
2019-05-11T21:03:54.816Z,8.36
2019-05-11T21:07:01.269Z,8.35
2019-05-11T21:10:08.929Z,8.39
2019-05-11T21:13:17.733Z,7.88
2019-05-11T21:16:23.562Z,7.73
2019-05-11T21:19:30.016Z,7.71
2019-05-11T21:22:40.057Z,7.63
2019-05-11T21:25:44.539Z,7.62
2019-05-11T21:28:51.031Z,7.43
2019-05-11T21:31:58.906Z,7.33
2019-05-11T21:35:08.500Z,7.37
2019-05-11T21:38:14.316Z,7.24
2019-05-11T21:41:20.902Z,7.28
2019-05-11T21:44:27.843Z,7.25
2019-05-11T21:47:34.471Z,7.20
2019-05-11T21:50:41.217Z,7.09
2019-05-11T21:53:48.665Z,6.97
2019-05-11T21:56:57.410Z,7.05
2019-05-11T22:00:03.392Z,6.96
2019-05-11T22:03:10.586Z,7.07
2019-05-11T22:06:18.101Z,7.01
2019-05-11T22:09:24.657Z,7.00
2019-05-11T22:12:31.195Z,7.04
2019-05-11T22:15:38.565Z,6.91
2019-05-11T22:18:45.361Z,6.96
2019-05-11T22:21:51.787Z,6.90
2019-05-11T22:24:58.545Z,6.88
2019-05-11T22:28:08.400Z,6.82
2019-05-11T22:31:14.494Z,6.80
2019-05-11T22:34:21.069Z,6.91
2019-05-11T22:37:27.820Z,6.89
2019-05-11T22:40:34.350Z,6.90
2019-05-11T22:43:40.929Z,6.83
2019-05-11T22:46:47.857Z,6.78
2019-05-11T22:49:54.457Z,6.78
2019-05-11T22:53:01.439Z,6.83
2019-05-11T22:56:07.915Z,6.74
2019-05-11T22:59:15.273Z,6.75
2019-05-11T23:02:21.763Z,6.74
2019-05-11T23:05:29.937Z,6.74
2019-05-11T23:08:38.108Z,6.66
2019-05-11T23:11:45.462Z,6.57
2019-05-11T23:15:09.569Z,6.64
2019-05-11T23:18:17.995Z,6.71
2019-05-11T23:21:24.263Z,6.62
2019-05-11T23:24:30.761Z,6.66
2019-05-11T23:27:39.285Z,6.49
2019-05-11T23:30:47.454Z,6.57
2019-05-11T23:33:53.649Z,6.55
2019-05-11T23:37:00.181Z,6.52
2019-05-11T23:40:09.151Z,6.47
2019-05-11T23:43:15.318Z,6.39
2019-05-11T23:46:21.822Z,6.49
2019-05-11T23:49:28.356Z,6.32
2019-05-11T23:52:34.918Z,6.35
2019-05-11T23:55:41.780Z,6.39
2019-05-11T23:58:48.409Z,6.28
